Time;durP1;ratioP1;P1;durP2;ratioP2;P2;SDS_P1;SDS_P2;PMS_P1;PMS_P2;Temp;Humidity;BMP_temperature;BMP_pressure;BME280_temperature;BME280_humidity;BME280_pressure;Samples;Min_cycle;Max_cycle;Signal;HPM_P1;HPM_P2
2024/04/11 00:02:27;;;;;;;2.30;2.10;;;11.00;31.10;;;;;;11168655;26;20304;-71
2024/04/11 00:07:35;;;;;;;2.53;2.00;;;11.00;31.40;;;;;;11198448;26;20384;-72
2024/04/11 00:12:40;;;;;;;2.67;2.40;;;11.00;31.80;;;;;;11193506;26;20289;-72
2024/04/11 00:17:46;;;;;;;2.47;2.23;;;10.90;31.20;;;;;;11158405;26;20260;-71
2024/04/11 00:22:53;;;;;;;2.50;2.27;;;10.90;31.20;;;;;;11190563;26;20732;-71
2024/04/11 00:27:58;;;;;;;2.90;2.10;;;10.80;31.60;;;;;;11186122;26;20312;-71
2024/04/11 00:33:04;;;;;;;2.43;2.20;;;10.70;31.40;;;;;;11172230;26;20388;-71
2024/04/11 00:38:12;;;;;;;2.80;2.37;;;10.70;31.60;;;;;;11162307;26;20377;-71
2024/04/11 00:43:17;;;;;;;3.10;2.20;;;10.70;31.90;;;;;;11193570;26;20293;-72
2024/04/11 00:48:23;;;;;;;2.63;2.13;;;10.60;31.60;;;;;;11176176;26;21143;-71
2024/04/11 00:53:31;;;;;;;2.80;2.03;;;10.70;31.90;;;;;;11181027;26;20333;-71
2024/04/11 00:58:38;;;;;;;2.40;2.03;;;10.60;32.20;;;;;;11180999;26;20271;-71
2024/04/11 01:03:44;;;;;;;2.43;1.83;;;10.60;31.50;;;;;;11170724;26;20306;-71
2024/04/11 01:08:52;;;;;;;2.73;1.90;;;10.50;31.50;;;;;;11175903;26;20297;-72
2024/04/11 01:13:57;;;;;;;2.03;1.83;;;10.50;31.90;;;;;;11172567;26;20263;-71
2024/04/11 01:19:02;;;;;;;2.10;1.90;;;10.30;31.60;;;;;;11183048;26;20266;-71
2024/04/11 01:24:13;;;;;;;2.10;1.90;;;10.20;31.60;;;;;;11183866;26;20748;-71
2024/04/11 01:29:18;;;;;;;2.77;1.83;;;10.20;32.20;;;;;;11189978;26;20328;-71
2024/04/11 01:34:23;;;;;;;2.20;2.00;;;10.10;31.80;;;;;;11182912;26;23486;-71
2024/04/11 01:39:31;;;;;;;2.47;1.90;;;10.00;31.90;;;;;;11171808;26;20325;-71
2024/04/11 01:44:36;;;;;;;2.50;2.17;;;10.00;32.50;;;;;;11164235;26;20262;-71
2024/04/11 01:49:43;;;;;;;2.53;2.10;;;10.00;32.20;;;;;;11197439;26;20261;-71
2024/04/11 01:54:50;;;;;;;2.10;2.00;;;9.90;33.00;;;;;;11182252;26;20258;-71
2024/04/11 01:59:56;;;;;;;3.50;1.90;;;9.90;33.80;;;;;;11193441;26;20302;-71
2024/04/11 02:05:01;;;;;;;2.20;2.00;;;9.90;33.00;;;;;;11194544;26;20254;-71
2024/04/11 02:10:10;;;;;;;2.57;2.00;;;9.90;33.00;;;;;;11204313;26;20257;-71
2024/04/11 02:15:16;;;;;;;2.50;1.90;;;10.00;32.50;;;;;;11181566;26;20322;-71
2024/04/11 02:20:21;;;;;;;3.40;2.27;;;9.90;32.80;;;;;;11212471;26;20912;-71
2024/04/11 02:25:28;;;;;;;3.33;2.33;;;9.80;32.80;;;;;;11193031;26;20826;-71
2024/04/11 02:30:33;;;;;;;2.13;1.90;;;9.80;33.10;;;;;;11173208;26;20259;-71
2024/04/11 02:35:40;;;;;;;2.30;2.10;;;9.70;32.90;;;;;;11186732;26;20725;-71
2024/04/11 02:40:48;;;;;;;2.60;2.20;;;9.60;33.40;;;;;;11185367;26;20262;-71
2024/04/11 02:45:57;;;;;;;3.07;2.37;;;9.60;33.80;;;;;;11193440;26;20257;-71
2024/04/11 02:51:04;;;;;;;3.70;3.10;;;9.60;33.30;;;;;;11221754;26;20266;-71
2024/04/11 02:56:12;;;;;;;2.70;2.37;;;9.60;33.30;;;;;;11175212;26;20255;-71
2024/04/11 03:01:17;;;;;;;2.20;2.00;;;9.40;33.60;;;;;;11191582;26;20768;-71
2024/04/11 03:06:23;;;;;;;2.60;2.40;;;9.40;33.40;;;;;;11206797;26;20273;-71
2024/04/11 03:11:30;;;;;;;2.77;2.50;;;9.30;33.60;;;;;;11203326;26;20305;-71
2024/04/11 03:16:36;;;;;;;2.40;2.20;;;9.20;34.10;;;;;;11185183;26;20302;-71
2024/04/11 03:21:41;;;;;;;2.77;2.40;;;9.20;33.60;;;;;;11192836;26;20282;-71
2024/04/11 03:26:49;;;;;;;2.20;2.00;;;9.30;33.80;;;;;;11202150;26;20261;-71
2024/04/11 03:31:54;;;;;;;3.90;2.23;;;9.30;34.20;;;;;;11192591;26;20479;-71
2024/04/11 03:36:59;;;;;;;3.47;1.93;;;9.30;33.80;;;;;;11210704;26;20259;-71
2024/04/11 03:42:08;;;;;;;1.93;1.77;;;9.30;33.60;;;;;;11188979;26;20300;-70
2024/04/11 03:47:13;;;;;;;2.30;2.10;;;9.30;33.90;;;;;;11198371;26;20259;-71
2024/04/11 03:52:18;;;;;;;1.77;1.60;;;9.40;33.60;;;;;;11210234;26;20302;-71
2024/04/11 03:57:26;;;;;;;3.50;2.10;;;9.40;33.60;;;;;;11188217;26;20321;-71
2024/04/11 04:02:31;;;;;;;3.27;2.80;;;9.40;33.90;;;;;;11190922;26;20259;-71
2024/04/11 04:07:36;;;;;;;3.70;3.40;;;9.30;33.60;;;;;;11197731;26;20263;-71
2024/04/11 04:12:45;;;;;;;5.77;4.67;;;9.30;33.60;;;;;;11201353;26;20263;-71
2024/04/11 04:17:51;;;;;;;5.10;4.60;;;9.30;34.00;;;;;;11178450;26;20290;-71
2024/04/11 04:22:56;;;;;;;7.40;4.17;;;9.30;33.50;;;;;;11193953;26;20806;-71
2024/04/11 04:28:04;;;;;;;5.27;4.60;;;9.30;33.60;;;;;;11200757;26;20334;-71
2024/04/11 04:33:09;;;;;;;4.13;3.20;;;9.20;34.10;;;;;;11201587;26;20308;-71
2024/04/11 04:38:16;;;;;;;3.33;3.00;;;9.20;33.50;;;;;;11191819;26;20270;-71
2024/04/11 04:43:24;;;;;;;3.57;2.60;;;9.10;33.30;;;;;;11193480;26;20348;-71
2024/04/11 04:48:29;;;;;;;4.57;2.97;;;9.00;33.90;;;;;;11177759;26;20309;-71
2024/04/11 04:53:35;;;;;;;2.67;2.47;;;8.90;33.50;;;;;;11182211;26;20279;-71
2024/04/11 04:58:43;;;;;;;2.80;2.47;;;8.80;33.60;;;;;;11168788;26;20258;-71
2024/04/11 05:03:50;;;;;;;2.97;2.67;;;8.70;34.20;;;;;;11161380;26;20258;-71
2024/04/11 05:08:56;;;;;;;3.27;2.97;;;8.70;33.90;;;;;;11166694;26;20282;-71
2024/04/11 05:14:07;;;;;;;3.83;3.00;;;8.70;34.10;;;;;;11173281;26;21088;-70
2024/04/11 05:19:15;;;;;;;4.47;2.97;;;8.80;34.50;;;;;;11154865;26;20260;-70
2024/04/11 05:24:21;;;;;;;3.87;2.40;;;8.80;34.40;;;;;;11207502;26;20307;-70
2024/04/11 05:29:30;;;;;;;3.97;2.83;;;8.90;34.30;;;;;;11173251;26;20266;-70
2024/04/11 05:34:35;;;;;;;2.83;2.60;;;8.90;34.80;;;;;;11175422;26;20345;-70
2024/04/11 05:39:40;;;;;;;3.37;3.00;;;9.00;34.50;;;;;;11169978;26;20267;-70
2024/04/11 05:44:49;;;;;;;5.23;3.47;;;9.00;34.60;;;;;;11178880;26;20313;-70
2024/04/11 05:49:54;;;;;;;3.33;3.03;;;9.00;34.90;;;;;;11172372;26;20258;-70
2024/04/11 05:54:59;;;;;;;3.83;3.50;;;9.10;34.60;;;;;;11194263;26;20860;-71
2024/04/11 06:00:08;;;;;;;5.03;3.27;;;9.10;34.70;;;;;;11208594;26;20262;-70
2024/04/11 06:05:14;;;;;;;3.70;3.40;;;9.10;35.40;;;;;;11187984;26;20837;-70
2024/04/11 06:10:20;;;;;;;5.37;3.10;;;9.10;35.30;;;;;;11195154;26;20298;-70
2024/04/11 06:15:29;;;;;;;3.30;2.77;;;9.10;35.20;;;;;;11203020;26;20283;-70
2024/04/11 06:20:34;;;;;;;2.73;2.53;;;9.20;35.90;;;;;;11179431;26;20263;-70
2024/04/11 06:25:40;;;;;;;4.53;2.83;;;9.20;35.40;;;;;;11197067;26;20718;-70
2024/04/11 06:30:48;;;;;;;2.90;2.60;;;9.30;35.80;;;;;;11203990;26;20825;-70
2024/04/11 06:35:54;;;;;;;3.70;2.90;;;9.40;36.60;;;;;;11175933;26;20306;-70
2024/04/11 06:40:59;;;;;;;3.57;2.87;;;9.50;36.00;;;;;;11196067;26;20847;-70
2024/04/11 06:46:10;;;;;;;2.53;2.33;;;9.60;36.10;;;;;;11169675;26;20262;-71
2024/04/11 06:51:19;;;;;;;2.93;2.60;;;9.70;37.10;;;;;;11187036;26;21096;-71
2024/04/11 06:56:24;;;;;;;3.00;2.53;;;9.80;36.40;;;;;;11183560;26;20330;-71
2024/04/11 07:01:32;;;;;;;3.17;2.43;;;9.80;36.60;;;;;;11190506;26;20372;-71
2024/04/11 07:06:38;;;;;;;3.40;2.57;;;9.90;37.60;;;;;;11187883;26;20776;-70
2024/04/11 07:11:48;;;;;;;2.80;2.57;;;10.10;36.20;;;;;;11165165;26;20700;-70
2024/04/11 07:16:57;;;;;;;4.03;3.00;;;10.20;36.40;;;;;;11152774;26;20326;-70
2024/04/11 07:22:08;;;;;;;2.90;2.70;;;10.30;37.40;;;;;;11175448;26;20259;-70
2024/04/11 07:27:17;;;;;;;4.30;3.03;;;10.50;36.90;;;;;;11175693;26;20272;-71
2024/04/11 07:32:26;;;;;;;4.57;3.43;;;10.70;37.20;;;;;;11172812;26;20257;-71
2024/04/11 07:37:33;;;;;;;4.57;3.60;;;10.90;38.10;;;;;;11158534;26;20306;-70
2024/04/11 07:42:55;;;;;;;4.07;3.63;;;11.10;37.60;;;;;;11165261;26;20291;-71
2024/04/11 07:48:04;;;;;;;5.07;3.37;;;11.30;37.50;;;;;;11124520;26;20256;-70
2024/04/11 07:53:18;;;;;;;3.77;3.43;;;11.60;39.10;;;;;;11169401;26;21115;-70
2024/04/11 07:58:23;;;;;;;5.57;3.80;;;11.80;38.20;;;;;;11168367;26;20379;-70
2024/04/11 08:03:31;;;;;;;4.00;3.60;;;12.10;37.80;;;;;;11160544;26;20273;-71
2024/04/11 08:08:36;;;;;;;5.90;3.83;;;12.40;38.50;;;;;;11103075;26;20264;-71
2024/04/11 08:13:43;;;;;;;4.30;3.50;;;12.70;37.70;;;;;;11145048;26;20317;-71
2024/04/11 08:18:52;;;;;;;4.03;3.30;;;12.90;37.60;;;;;;11118336;26;20381;-71
2024/04/11 08:24:00;;;;;;;3.70;3.00;;;13.20;38.10;;;;;;11124246;26;20263;-70
2024/04/11 08:29:05;;;;;;;3.10;2.80;;;13.50;37.80;;;;;;11160885;26;20255;-70
2024/04/11 08:34:13;;;;;;;3.73;3.20;;;13.80;37.40;;;;;;11159268;26;20262;-70
2024/04/11 08:39:18;;;;;;;5.60;3.03;;;14.10;37.50;;;;;;11157822;26;20258;-70
2024/04/11 08:44:25;;;;;;;4.10;3.00;;;14.40;37.10;;;;;;11147600;26;20745;-70
2024/04/11 08:49:33;;;;;;;3.50;2.87;;;14.70;36.70;;;;;;11149930;26;20385;-71
2024/04/11 08:54:43;;;;;;;3.17;2.80;;;15.10;36.60;;;;;;11153202;26;20261;-71
2024/04/11 08:59:49;;;;;;;4.60;2.83;;;15.40;36.10;;;;;;11154958;26;20312;-71
2024/04/11 09:04:57;;;;;;;4.97;2.70;;;15.60;35.40;;;;;;11153646;26;20293;-71
2024/04/11 09:10:14;;;;;;;2.67;2.47;;;15.90;35.00;;;;;;11150634;26;21118;-71
2024/04/11 09:15:19;;;;;;;2.70;2.50;;;16.10;34.90;;;;;;11150140;26;20259;-71
2024/04/11 09:20:27;;;;;;;3.07;2.50;;;16.30;34.60;;;;;;11152260;26;20376;-71
2024/04/11 09:25:34;;;;;;;4.00;2.40;;;16.50;33.40;;;;;;11175922;26;20304;-71
2024/04/11 09:30:39;;;;;;;3.37;2.60;;;16.80;33.70;;;;;;11164109;26;20313;-71
2024/04/11 09:35:52;;;;;;;4.07;2.70;;;16.90;33.70;;;;;;11180749;26;20251;-71
2024/04/11 09:41:04;;;;;;;4.20;2.50;;;17.00;32.70;;;;;;11189507;26;20278;-71
2024/04/11 09:46:10;;;;;;;3.87;2.40;;;17.20;33.60;;;;;;11191278;26;20299;-71
2024/04/11 09:51:20;;;;;;;2.83;2.10;;;17.30;33.00;;;;;;11173087;26;20270;-71
2024/04/11 09:56:25;;;;;;;3.57;2.37;;;17.40;32.50;;;;;;11164089;26;20311;-71
2024/04/11 10:01:37;;;;;;;3.17;2.20;;;17.70;33.50;;;;;;11173308;26;20250;-71
2024/04/11 10:06:45;;;;;;;3.47;2.33;;;17.90;32.60;;;;;;11168237;26;20609;-71
2024/04/11 10:11:51;;;;;;;2.37;2.17;;;18.10;31.50;;;;;;11180941;26;20298;-71
2024/04/11 10:17:01;;;;;;;2.57;2.03;;;18.20;31.60;;;;;;11182815;26;20840;-71
2024/04/11 10:22:15;;;;;;;3.07;2.10;;;18.40;31.00;;;;;;11176923;26;20777;-71
2024/04/11 10:27:20;;;;;;;2.73;2.00;;;18.60;30.60;;;;;;11165024;26;20305;-71
2024/04/11 10:32:35;;;;;;;2.50;1.80;;;18.70;31.00;;;;;;11177103;26;20304;-71
2024/04/11 10:37:46;;;;;;;1.80;1.67;;;18.90;30.90;;;;;;11208669;26;20296;-71
2024/04/11 10:48:17;;;;;;;1.57;1.40;;;19.20;30.00;;;;;;11193021;26;20311;-71
2024/04/11 10:53:25;;;;;;;3.07;1.67;;;19.20;29.70;;;;;;11176981;26;20255;-71
2024/04/11 10:58:32;;;;;;;2.07;1.50;;;19.30;28.70;;;;;;11137478;26;20280;-71
2024/04/11 11:03:46;;;;;;;2.87;1.67;;;19.30;29.30;;;;;;11158667;26;20282;-71
2024/04/11 11:09:10;;;;;;;2.30;1.67;;;19.40;29.30;;;;;;11153622;26;20995;-71
2024/04/11 11:14:18;;;;;;;2.10;1.90;;;19.50;27.90;;;;;;11107167;26;20346;-71
2024/04/11 11:19:23;;;;;;;2.27;1.73;;;19.50;28.60;;;;;;11095696;26;20277;-71
2024/04/11 11:24:34;;;;;;;2.27;1.73;;;19.60;28.90;;;;;;11163597;26;20264;-71
2024/04/11 11:29:48;;;;;;;2.43;1.80;;;19.60;28.50;;;;;;11173934;26;20258;-71
2024/04/11 11:34:54;;;;;;;2.33;1.60;;;19.70;29.20;;;;;;11187531;26;20305;-71
2024/04/11 11:40:37;;;;;;;2.53;1.70;;;19.70;29.00;;;;;;11193731;26;20296;-71
2024/04/11 11:45:44;;;;;;;1.77;1.67;;;19.60;27.40;;;;;;11193771;26;20305;-71
2024/04/11 11:50:52;;;;;;;2.87;2.03;;;19.40;28.50;;;;;;11208138;26;20265;-72
2024/04/11 11:56:05;;;;;;;1.93;1.70;;;19.30;28.50;;;;;;11178861;26;20740;-71
2024/04/11 12:01:28;;;;;;;2.80;1.80;;;19.30;28.00;;;;;;11184117;26;20294;-71
2024/04/11 12:06:35;;;;;;;2.73;1.60;;;19.40;28.70;;;;;;11187923;26;20254;-71
2024/04/11 12:12:07;;;;;;;1.50;1.40;;;19.50;28.80;;;;;;11195725;26;20259;-71
2024/04/11 12:17:14;;;;;;;2.07;1.50;;;19.70;28.00;;;;;;11186893;26;20300;-71
2024/04/11 12:22:20;;;;;;;1.97;1.70;;;19.90;28.60;;;;;;11187704;26;20609;-71
2024/04/11 12:27:28;;;;;;;2.70;1.90;;;20.00;28.20;;;;;;11184593;26;20981;-71
2024/04/11 12:32:35;;;;;;;2.33;1.60;;;20.10;27.00;;;;;;11194086;26;20266;-71
2024/04/11 12:37:45;;;;;;;2.00;1.60;;;20.00;27.80;;;;;;11177177;26;20789;-71
2024/04/11 12:42:56;;;;;;;2.17;1.47;;;20.10;27.90;;;;;;11195467;26;20259;-71
2024/04/11 12:48:05;;;;;;;2.30;1.40;;;20.10;27.10;;;;;;11201806;26;20307;-71
2024/04/11 12:53:13;;;;;;;2.93;1.83;;;20.20;27.70;;;;;;11146384;26;21428;-70
2024/04/11 12:58:23;;;;;;;2.73;1.70;;;20.30;27.40;;;;;;11153036;26;20309;-70
2024/04/11 13:03:35;;;;;;;1.97;1.73;;;20.20;26.90;;;;;;11191171;26;20312;-71
2024/04/11 13:08:45;;;;;;;2.53;1.80;;;20.30;27.50;;;;;;11190414;26;20370;-71
2024/04/11 13:13:57;;;;;;;2.07;1.97;;;20.20;27.40;;;;;;11188386;26;20859;-71
2024/04/11 13:19:06;;;;;;;2.73;2.07;;;20.30;26.90;;;;;;11155342;26;20322;-71
2024/04/11 13:24:13;;;;;;;1.80;1.63;;;20.30;27.40;;;;;;11162345;26;20262;-71
2024/04/11 13:29:20;;;;;;;2.60;2.07;;;20.40;27.40;;;;;;11158217;26;20788;-71
2024/04/11 13:40:51;;;;;;;2.23;1.77;;;20.50;27.30;;;;;;11160780;26;20304;-71
2024/04/11 13:45:22;;;;;;;1.70;1.60;;;20.60;27.00;;;;;;11149778;26;20271;-71
2024/04/11 13:50:43;;;;;;;2.00;1.70;;;20.60;26.10;;;;;;11156515;26;20307;-71
2024/04/11 13:55:53;;;;;;;1.83;1.50;;;20.50;26.70;;;;;;11149845;26;22995;-71
2024/04/11 14:01:04;;;;;;;1.90;1.70;;;20.50;26.70;;;;;;11146689;26;20301;-71
2024/04/11 14:06:27;;;;;;;1.67;1.53;;;20.50;26.30;;;;;;11144915;26;20776;-70
2024/04/11 14:11:34;;;;;;;2.20;1.90;;;20.50;26.80;;;;;;11141044;26;20254;-70
2024/04/11 14:16:56;;;;;;;1.97;1.70;;;20.50;26.40;;;;;;11139855;26;20361;-70
2024/04/11 14:22:08;;;;;;;1.80;1.47;;;20.50;25.60;;;;;;11141192;26;20266;-71
2024/04/11 14:27:13;;;;;;;1.93;1.70;;;20.50;26.80;;;;;;11137655;26;20281;-69
2024/04/11 14:32:29;;;;;;;1.57;1.30;;;20.50;26.30;;;;;;11144476;26;20267;-70
2024/04/11 14:42:53;;;;;;;1.90;1.80;;;20.50;26.50;;;;;;11155609;26;20289;-70
2024/04/11 14:48:01;;;;;;;2.57;1.60;;;20.60;25.70;;;;;;11155581;26;20254;-70
2024/04/11 14:53:10;;;;;;;2.10;1.80;;;20.60;25.70;;;;;;11133067;26;20258;-70
2024/04/11 14:58:19;;;;;;;2.33;1.93;;;20.60;25.70;;;;;;11153150;26;20306;-70
2024/04/11 15:03:30;;;;;;;3.77;1.70;;;20.50;25.70;;;;;;11148068;26;20291;-70
2024/04/11 15:08:35;;;;;;;3.73;1.90;;;20.60;25.70;;;;;;11153485;26;20305;-70
2024/04/11 15:13:44;;;;;;;2.40;1.73;;;20.70;26.10;;;;;;11154215;26;20379;-69
2024/04/11 15:18:53;;;;;;;2.87;1.63;;;20.70;25.80;;;;;;11154550;26;20267;-70
2024/04/11 15:23:58;;;;;;;1.60;1.50;;;20.80;25.70;;;;;;11148918;26;20286;-70
2024/04/11 15:29:18;;;;;;;1.70;1.57;;;20.80;25.90;;;;;;11150942;26;20820;-70
2024/04/11 15:34:29;;;;;;;1.70;1.60;;;20.90;25.90;;;;;;11147773;26;20305;-70
2024/04/11 15:39:34;;;;;;;2.73;1.40;;;20.90;25.30;;;;;;11160722;26;20360;-70
2024/04/11 15:44:46;;;;;;;2.87;1.73;;;20.90;25.90;;;;;;11160844;26;20312;-70
2024/04/11 15:49:57;;;;;;;2.00;1.40;;;20.90;25.90;;;;;;11154500;26;20312;-70
2024/04/11 15:55:09;;;;;;;1.67;1.50;;;20.80;25.30;;;;;;11155967;26;20854;-70
2024/04/11 16:00:27;;;;;;;2.27;1.50;;;20.70;25.80;;;;;;11155919;26;20760;-71
2024/04/11 16:05:37;;;;;;;2.90;1.57;;;20.70;25.80;;;;;;11149382;26;20298;-71
2024/04/11 16:10:43;;;;;;;1.77;1.53;;;20.60;25.20;;;;;;11148069;26;20301;-70
2024/04/11 16:15:48;;;;;;;2.97;1.60;;;20.60;25.70;;;;;;11150110;26;20259;-70
2024/04/11 16:20:59;;;;;;;1.37;1.30;;;20.60;25.70;;;;;;11158277;26;20264;-70
2024/04/11 16:26:14;;;;;;;2.10;1.40;;;20.60;25.40;;;;;;11145321;26;20299;-70
2024/04/11 16:31:25;;;;;;;1.67;1.57;;;20.70;25.80;;;;;;11153290;26;20260;-70
2024/04/11 16:36:43;;;;;;;2.60;1.90;;;20.70;25.80;;;;;;11150807;26;20279;-70
2024/04/11 16:41:50;;;;;;;2.07;1.87;;;20.60;25.20;;;;;;11149373;26;20263;-71
2024/04/11 16:46:56;;;;;;;2.23;1.77;;;20.50;25.60;;;;;;11156678;26;20301;-70
2024/04/11 16:52:07;;;;;;;1.90;1.70;;;20.50;25.60;;;;;;11147172;26;20686;-71
2024/04/11 16:57:14;;;;;;;4.03;2.90;;;20.40;25.60;;;;;;11148791;26;20349;-70
2024/04/11 17:02:21;;;;;;;5.93;3.83;;;20.40;25.60;;;;;;11154524;26;20305;-70
2024/04/11 17:07:36;;;;;;;9.20;6.77;;;20.40;25.60;;;;;;11152156;26;20662;-71
2024/04/11 17:12:41;;;;;;;5.37;3.23;;;20.40;25.60;;;;;;11147087;26;20282;-70
2024/04/11 17:23:08;;;;;;;2.50;2.30;;;20.40;25.60;;;;;;11154283;26;20604;-71
2024/04/11 17:28:18;;;;;;;3.03;2.40;;;20.30;25.50;;;;;;11144426;26;20301;-71
2024/04/11 17:33:41;;;;;;;2.70;2.50;;;20.30;25.50;;;;;;11145816;26;20265;-70
2024/04/11 17:38:59;;;;;;;4.80;3.67;;;20.20;25.50;;;;;;11147874;26;20630;-69
2024/04/11 17:44:09;;;;;;;5.50;4.27;;;20.20;26.10;;;;;;11147667;26;20760;-70
2024/04/11 17:49:26;;;;;;;3.07;2.70;;;20.20;26.20;;;;;;11156565;26;20292;-70
2024/04/11 17:54:34;;;;;;;3.67;2.40;;;20.20;26.10;;;;;;11157979;26;20254;-70
2024/04/11 17:59:48;;;;;;;3.80;2.60;;;20.10;26.00;;;;;;11154635;26;20614;-70
2024/04/11 18:04:55;;;;;;;2.57;2.37;;;20.00;26.30;;;;;;11142749;26;20255;-70
2024/04/11 18:10:07;;;;;;;9.80;8.90;;;19.90;26.40;;;;;;11146923;26;20260;-70
2024/04/11 18:15:17;;;;;;;7.77;6.97;;;19.80;26.40;;;;;;11092926;26;20262;-70
2024/04/11 18:20:27;;;;;;;5.67;5.20;;;19.70;26.40;;;;;;11141985;26;20388;-70
2024/04/11 18:25:37;;;;;;;6.17;4.13;;;19.60;26.60;;;;;;11133065;26;20255;-70
2024/04/11 18:30:49;;;;;;;4.20;3.00;;;19.40;26.70;;;;;;11138600;26;20406;-70
2024/04/11 18:35:56;;;;;;;7.33;2.77;;;19.30;26.60;;;;;;11141270;26;20267;-70
2024/04/11 18:46:25;;;;;;;6.73;2.40;;;19.10;26.90;;;;;;11150495;26;21106;-71
2024/04/11 18:51:38;;;;;;;2.23;2.00;;;19.10;26.80;;;;;;11126410;26;20901;-70
2024/04/11 18:56:48;;;;;;;2.80;1.87;;;18.90;26.90;;;;;;11137328;26;20255;-70
2024/04/11 19:01:57;;;;;;;2.20;2.00;;;18.90;27.20;;;;;;11134273;26;20258;-70
2024/04/11 19:07:07;;;;;;;1.97;1.77;;;18.80;27.10;;;;;;11141778;26;20851;-70
2024/04/11 19:12:15;;;;;;;2.93;1.90;;;18.70;27.20;;;;;;11150140;26;20295;-71
2024/04/11 19:17:23;;;;;;;2.03;1.83;;;18.70;27.30;;;;;;11149978;26;20270;-70
2024/04/11 19:22:30;;;;;;;2.30;2.10;;;18.60;27.10;;;;;;11143812;26;20597;-71
2024/04/11 19:27:38;;;;;;;2.93;2.20;;;18.50;27.20;;;;;;11159493;26;21011;-70
2024/04/11 19:32:49;;;;;;;4.63;2.00;;;18.40;27.30;;;;;;11154135;26;20780;-70
2024/04/11 19:37:59;;;;;;;7.23;6.50;;;18.20;27.00;;;;;;11152809;26;21069;-70
2024/04/11 19:43:09;;;;;;;7.50;6.80;;;18.00;27.10;;;;;;11152565;26;20266;-71
2024/04/11 19:48:15;;;;;;;4.83;4.40;;;17.70;27.40;;;;;;11147196;26;20270;-71
2024/04/11 19:53:20;;;;;;;3.57;3.27;;;17.50;27.40;;;;;;11121834;26;20298;-70
2024/04/11 19:58:28;;;;;;;3.30;3.00;;;17.30;27.60;;;;;;11159816;26;20257;-70
2024/04/11 20:03:37;;;;;;;3.80;3.20;;;17.10;28.00;;;;;;11159045;26;20308;-70
2024/04/11 20:08:42;;;;;;;4.43;3.90;;;16.90;27.90;;;;;;11153364;26;20310;-70
2024/04/11 20:19:11;;;;;;;3.83;3.43;;;16.40;28.50;;;;;;11142609;26;20262;-71
2024/04/11 20:24:16;;;;;;;3.87;3.30;;;16.30;28.50;;;;;;11148122;26;20259;-71
2024/04/11 20:29:25;;;;;;;3.07;2.67;;;16.30;28.70;;;;;;11156490;26;20260;-70
2024/04/11 20:34:29;;;;;;;3.20;2.73;;;16.30;28.90;;;;;;11158224;26;20288;-70
2024/04/11 20:39:39;;;;;;;2.90;2.63;;;16.20;28.60;;;;;;11150563;26;20325;-71
2024/04/11 20:44:53;;;;;;;3.73;2.77;;;16.20;28.80;;;;;;11149256;26;20698;-71
2024/04/11 21:38:20;;;;;;;4.33;2.73;;;15.00;29.90;;;;;;11157633;26;21110;-70
2024/04/11 21:43:25;;;;;;;3.30;2.97;;;15.00;29.50;;;;;;11142527;26;20366;-70
2024/04/11 21:48:32;;;;;;;4.33;3.37;;;15.10;29.60;;;;;;11161160;26;20295;-70
2024/04/11 21:53:40;;;;;;;6.40;3.00;;;15.00;29.90;;;;;;11148069;26;21029;-70
2024/04/11 21:58:45;;;;;;;4.40;3.07;;;15.10;29.60;;;;;;11161460;26;20258;-70
2024/04/11 22:03:53;;;;;;;2.80;2.60;;;15.10;29.60;;;;;;11153364;26;20340;-71
2024/04/11 22:09:11;;;;;;;3.00;2.70;;;15.00;30.00;;;;;;11157766;26;20760;-70
2024/04/11 22:14:21;;;;;;;3.50;3.20;;;14.90;29.60;;;;;;11142257;26;20258;-70
2024/04/11 22:19:31;;;;;;;3.30;2.80;;;14.90;29.70;;;;;;11145268;26;20326;-70
2024/04/11 22:24:36;;;;;;;3.63;2.90;;;14.90;30.00;;;;;;11145977;26;20384;-70
2024/04/11 22:29:43;;;;;;;3.63;3.10;;;14.80;29.70;;;;;;11142802;26;20408;-70
2024/04/11 22:34:53;;;;;;;3.63;3.03;;;14.80;29.80;;;;;;11152731;26;20271;-70
2024/04/11 22:40:00;;;;;;;4.60;2.80;;;14.70;30.00;;;;;;11168028;26;20266;-70
2024/04/11 22:45:09;;;;;;;3.30;2.63;;;14.50;29.70;;;;;;11161017;26;20359;-70
2024/04/11 22:50:19;;;;;;;3.27;2.97;;;14.20;29.80;;;;;;11165696;26;20263;-70
2024/04/11 22:55:24;;;;;;;3.20;2.90;;;14.00;30.40;;;;;;11155117;26;20304;-70
2024/04/11 23:00:34;;;;;;;3.27;3.00;;;13.90;30.10;;;;;;11136828;26;20262;-69
2024/04/11 23:05:55;;;;;;;3.20;2.90;;;13.80;30.30;;;;;;11174282;26;21131;-70
2024/04/11 23:11:11;;;;;;;2.70;2.50;;;13.90;31.10;;;;;;11158271;26;20851;-70
2024/04/11 23:16:17;;;;;;;3.37;3.07;;;13.80;30.20;;;;;;11158525;26;20251;-70
2024/04/11 23:21:26;;;;;;;2.87;2.67;;;13.90;30.40;;;;;;11147659;26;20264;-70
2024/04/11 23:26:31;;;;;;;4.90;3.00;;;13.80;31.00;;;;;;11159670;26;23795;-70
2024/04/11 23:31:36;;;;;;;3.43;2.90;;;13.90;30.40;;;;;;11157478;26;20796;-70
2024/04/11 23:36:45;;;;;;;3.70;2.80;;;13.80;30.30;;;;;;11158033;26;20726;-70
2024/04/11 23:41:50;;;;;;;3.03;2.80;;;13.80;31.00;;;;;;11168603;26;20603;-70
2024/04/11 23:47:00;;;;;;;3.93;3.30;;;13.80;30.10;;;;;;11166212;26;20298;-70
2024/04/11 23:52:08;;;;;;;3.13;2.73;;;13.70;30.10;;;;;;11154176;26;20263;-71
2024/04/11 23:57:12;;;;;;;3.40;3.10;;;13.50;30.80;;;;;;11159834;26;20259;-70
